Holly Ann — WDE9094 — position and weather

sailwx.info

Track history (hours):
 
Tides and Currents Weather Stations Pressure Air Temp Water Temp Dewpoint Dewpoint Depression Visibility Wind Speed Wind Dir Waves Ship Positions

Holly Ann

Owner: Manke Tug and Barge Co., Inc., Shelton, WA. More information available from US FCC via Universal Licensing System and Coast Guard Vessel Documentation Center.

Last reported at 2014-Oct-30 16:04 UTC. Time now 2014-Oct-31 10:44 UTC.
Position N 47°11' W 122°40'.

; draft 4.5 m.

Type: Towing. MMSI: 367413350.

Date/timePositionNaut miles runAvg speedWind from/ knotsBaromVisibWave heightAir tempDewpointWater temp
2014-Oct-30 16:04N 47°11' W 122°40'5 9.0
2014-Oct-30 15:33N 47°14' W 122°35'10 9.8
2014-Oct-30 14:33N 47°24' W 122°32'8 8.5
2014-Oct-30 13:34N 47°32' W 122°28'2 9.0
2014-Oct-30 13:18N 47°34' W 122°26'3 4.7
2014-Oct-30 12:33N 47°34' W 122°21'0 0.0
2014-Oct-30 12:33N 47°34' W 122°21'0 0.0
2014-Oct-30 11:33N 47°34' W 122°21'0 0.0
2014-Oct-30 11:33N 47°34' W 122°21'0 0.0
2014-Oct-30 10:33N 47°34' W 122°21'0 0.0
2014-Oct-30 10:32N 47°34' W 122°21'0 0.0
2014-Oct-30 09:33N 47°34' W 122°21'0 0.0
2014-Oct-30 09:33N 47°34' W 122°21'0 0.0
2014-Oct-30 08:33N 47°34' W 122°21'0 0.0
2014-Oct-30 08:32N 47°34' W 122°21'0 0.0
2014-Oct-30 07:33N 47°34' W 122°21'0 0.0
2014-Oct-30 07:32N 47°34' W 122°21'0 0.0
2014-Oct-30 06:34N 47°34' W 122°21'0 0.3
2014-Oct-30 06:32N 47°34' W 122°21'0 0.0
2014-Oct-30 06:12N 47°34' W 122°21'0 0.0
2014-Oct-30 05:33N 47°34' W 122°21'0 0.0
2014-Oct-30 04:33N 47°34' W 122°21'0 0.0
2014-Oct-30 04:32N 47°34' W 122°21'0 0.0
2014-Oct-30 03:33N 47°34' W 122°21'0 0.0
2014-Oct-30 03:32N 47°34' W 122°21'0 0.0
2014-Oct-30 02:33N 47°34' W 122°21'0 0.0
2014-Oct-30 02:32N 47°34' W 122°21'0 0.0
2014-Oct-30 01:33N 47°34' W 122°21'0 0.0
2014-Oct-30 01:32N 47°34' W 122°21'0 0.0
2014-Oct-30 00:34N 47°34' W 122°21'0 0.0
2014-Oct-30 00:32N 47°34' W 122°21'0 0.0
2014-Oct-29 23:34N 47°34' W 122°21'0 0.0
2014-Oct-29 23:32N 47°34' W 122°21'0 0.0
2014-Oct-29 22:33N 47°34' W 122°21'0 0.0
2014-Oct-29 22:31N 47°34' W 122°21'0 0.0
2014-Oct-29 21:34N 47°34' W 122°21'0 0.0
2014-Oct-29 21:31N 47°34' W 122°21'0 0.0
2014-Oct-29 20:33N 47°34' W 122°21'0 0.0
2014-Oct-29 20:31N 47°34' W 122°21'0 0.0
2014-Oct-29 19:33N 47°34' W 122°21'0 0.0
2014-Oct-29 19:11N 47°34' W 122°21'0 0.0
2014-Oct-29 18:33N 47°34' W 122°21'0 0.0
2014-Oct-29 18:30N 47°34' W 122°21'0 0.0
2014-Oct-29 17:33N 47°34' W 122°21'0 0.0
2014-Oct-29 17:30N 47°34' W 122°21'0 0.0
2014-Oct-29 16:34N 47°34' W 122°21'0 0.0
2014-Oct-29 16:30N 47°34' W 122°21'0 0.0
2014-Oct-29 15:33N 47°34' W 122°21'0 0.0
2014-Oct-29 15:30N 47°34' W 122°21'0 0.0
2014-Oct-29 14:32N 47°34' W 122°21'0 0.0
2014-Oct-29 14:30N 47°34' W 122°21'0 0.0
2014-Oct-29 13:34N 47°34' W 122°21'0 0.0
2014-Oct-29 13:30N 47°34' W 122°21'0 0.4
2014-Oct-29 12:30N 47°34' W 122°21'0 2.8
2014-Oct-29 12:28N 47°34' W 122°21'2 2.3
2014-Oct-29 11:33N 47°36' W 122°24'4 3.6
2014-Oct-29 10:33N 47°32' W 122°25'5 5.2
2014-Oct-29 09:33N 47°27' W 122°23'5 5.1
2014-Oct-29 08:33N 47°22' W 122°21'6 5.8
2014-Oct-29 07:33N 47°19' W 122°28'6 5.7
2014-Oct-29 06:33N 47°15' W 122°34'10 0.4
2014-Oct-28 01:33N 47°10' W 122°48'8 7.9
2014-Oct-28 00:34N 47°12' W 122°36'10 9.6
2014-Oct-27 23:34N 47°22' W 122°32'7 8.2
2014-Oct-27 22:42N 47°28' W 122°30'1 8.1
2014-Oct-27 22:34N 47°30' W 122°30'0 7.0
2014-Oct-27 22:30N 47°30' W 122°30'8 8.0
2014-Oct-27 21:33N 47°36' W 122°23'0 6.9
2014-Oct-27 21:31N 47°36' W 122°23'3 3.0
2014-Oct-27 20:34N 47°33' W 122°21'0 0.0
2014-Oct-27 20:31N 47°33' W 122°21'0 0.0
2014-Oct-27 19:34N 47°33' W 122°21'0 0.0
2014-Oct-27 19:31N 47°33' W 122°21'0 0.0
2014-Oct-27 18:34N 47°33' W 122°21'0 0.0
2014-Oct-27 18:30N 47°33' W 122°21'0 0.0
2014-Oct-27 17:34N 47°33' W 122°21'0 0.0
2014-Oct-27 17:31N 47°33' W 122°21'0 0.0
2014-Oct-27 16:34N 47°33' W 122°21'0 0.0
2014-Oct-27 16:31N 47°33' W 122°21'0 0.0
2014-Oct-27 15:34N 47°33' W 122°21'0 0.0
2014-Oct-27 15:30N 47°33' W 122°21'0 0.0
2014-Oct-27 14:34N 47°33' W 122°21'0 0.0
2014-Oct-27 14:30N 47°33' W 122°21'0 0.0
2014-Oct-27 13:33N 47°33' W 122°21'0 0.0
2014-Oct-27 13:30N 47°33' W 122°21'0 0.0
2014-Oct-27 12:34N 47°33' W 122°21'0 0.0
2014-Oct-27 12:30N 47°33' W 122°21'0 0.0
2014-Oct-27 11:34N 47°33' W 122°21'0 0.0
2014-Oct-27 11:30N 47°33' W 122°21'0 0.0
2014-Oct-27 10:34N 47°33' W 122°21'0 0.0
2014-Oct-27 10:29N 47°33' W 122°21'1 1.5
2014-Oct-27 09:34N 47°35' W 122°22'0 3.0
2014-Oct-27 09:30N 47°35' W 122°22'4 3.9
2014-Oct-27 08:33N 47°34' W 122°27'0 5.3
2014-Oct-27 08:30N 47°34' W 122°27'5 5.8
2014-Oct-27 07:33N 47°29' W 122°30'0 6.0
2014-Oct-27 07:29N 47°28' W 122°31'6 6.4
2014-Oct-27 06:34N 47°22' W 122°32'9 8.6
2014-Oct-27 05:33N 47°14' W 122°35'  
2014-Oct-23 13:27N 47°12' W 122°56'2 1.7
2014-Oct-23 12:25N 47°11' W 122°53'0 0.0
2014-Oct-23 09:14N 47°11' W 122°53'12 3.1
2014-Oct-23 05:31N 47°13' W 122°37'5 5.8
2014-Oct-23 04:33N 47°17' W 122°33'6 5.7
2014-Oct-23 03:33N 47°23' W 122°32'7 7.1
2014-Oct-23 02:33N 47°30' W 122°29'2 7.2
2014-Oct-23 02:14N 47°32' W 122°28'5 7.4
2014-Oct-23 01:33N 47°37' W 122°28'0 7.1
2014-Oct-23 01:29N 47°38' W 122°28'7 7.5
2014-Oct-23 00:33N 47°45' W 122°27'0 7.3
2014-Oct-23 00:29N 47°45' W 122°27'7 7.7
2014-Oct-22 23:34N 47°52' W 122°23'8 8.1
2014-Oct-22 22:33N 47°58' W 122°16'4 4.3
2014-Oct-22 21:33N 48°01' W 122°11'0 0.0
2014-Oct-22 20:33N 48°01' W 122°11'0 0.0
2014-Oct-22 19:33N 48°01' W 122°11'0 0.0
2014-Oct-22 18:26N 48°01' W 122°11'0 0.0
2014-Oct-22 17:33N 48°01' W 122°11'0 0.0
2014-Oct-22 16:33N 48°01' W 122°11'0 0.0
2014-Oct-22 15:33N 48°01' W 122°11'0 0.0
2014-Oct-22 14:10N 48°01' W 122°11'0 0.0
2014-Oct-22 13:31N 48°01' W 122°11'0 0.0
2014-Oct-22 12:33N 48°01' W 122°11'1 1.0
2014-Oct-22 11:33N 48°01' W 122°13'4 4.4
2014-Oct-22 10:37N 47°58' W 122°17'0 2.9
2014-Oct-22 10:33N 47°58' W 122°17'1 3.3
2014-Oct-22 10:22N 47°59' W 122°18'2 2.5
2014-Oct-22 09:33N 47°57' W 122°20'5 5.0
2014-Oct-22 08:33N 47°52' W 122°22'3 4.4
2014-Oct-22 07:52N 47°50' W 122°24'1 4.4
2014-Oct-22 07:33N 47°48' W 122°25'0 4.6
2014-Oct-22 07:32N 47°48' W 122°25'5 4.9
2014-Oct-22 06:33N 47°44' W 122°26'0 5.0
2014-Oct-22 06:32N 47°43' W 122°26'3 4.9
2014-Oct-22 05:57N 47°41' W 122°27'2 5.1
2014-Oct-22 05:33N 47°39' W 122°27'7 6.8
2014-Oct-22 04:33N 47°32' W 122°28'1 8.4
2014-Oct-22 04:26N 47°31' W 122°29'7 8.0
2014-Oct-22 03:33N 47°24' W 122°32'9 9.1
2014-Oct-22 02:33N 47°15' W 122°34'10 7.4
2014-Oct-22 01:10N 47°10' W 122°46'7 0.3
2014-Oct-21 03:30N 47°12' W 122°37'6 6.2
2014-Oct-21 02:33N 47°17' W 122°33'7 7.0
2014-Oct-21 01:34N 47°24' W 122°33'6 7.7
2014-Oct-21 00:44N 47°30' W 122°30'1 7.8
2014-Oct-21 00:34N 47°32' W 122°29'1 7.6
2014-Oct-21 00:29N 47°32' W 122°28'5 5.6
2014-Oct-20 23:32N 47°34' W 122°21'0 7.0
2014-Oct-20 23:29N 47°34' W 122°21'0 0.1
2014-Oct-20 22:31N 47°34' W 122°21'0 0.0
2014-Oct-20 21:10N 47°34' W 122°21'0 0.0
2014-Oct-20 20:31N 47°34' W 122°21'0 0.0
2014-Oct-20 19:49N 47°34' W 122°21'0 0.0
2014-Oct-20 19:33N 47°34' W 122°21'0 0.0
2014-Oct-20 19:29N 47°34' W 122°21'0 0.0
2014-Oct-20 18:34N 47°34' W 122°21'0 0.0
2014-Oct-20 18:29N 47°34' W 122°21'0 0.0
2014-Oct-20 17:33N 47°34' W 122°21'1 0.7
2014-Oct-20 16:33N 47°35' W 122°22'  
Track history (hours):
 
Tides and Currents Weather Stations Pressure Air Temp Water Temp Dewpoint Dewpoint Depression Visibility Wind Speed Wind Dir Waves Ship Positions

Holly Ann

Owner: Manke Tug and Barge Co., Inc., Shelton, WA. More information available from US FCC via Universal Licensing System and Coast Guard Vessel Documentation Center.

Last reported at 2014-Oct-30 16:04 UTC. Time now 2014-Oct-31 10:44 UTC.
Position N 47°11' W 122°40'.

; draft 4.5 m.

Type: Towing. MMSI: 367413350.

Date/timePositionNaut miles runAvg speedWind from/ knotsBaromVisibWave heightAir tempDewpointWater temp
2014-Oct-30 16:04N 47°11' W 122°40'5 9.0
2014-Oct-30 15:33N 47°14' W 122°35'10 9.8
2014-Oct-30 14:33N 47°24' W 122°32'8 8.5
2014-Oct-30 13:34N 47°32' W 122°28'2 9.0
2014-Oct-30 13:18N 47°34' W 122°26'3 4.7
2014-Oct-30 12:33N 47°34' W 122°21'0 0.0
2014-Oct-30 12:33N 47°34' W 122°21'0 0.0
2014-Oct-30 11:33N 47°34' W 122°21'0 0.0
2014-Oct-30 11:33N 47°34' W 122°21'0 0.0
2014-Oct-30 10:33N 47°34' W 122°21'0 0.0
2014-Oct-30 10:32N 47°34' W 122°21'0 0.0
2014-Oct-30 09:33N 47°34' W 122°21'0 0.0
2014-Oct-30 09:33N 47°34' W 122°21'0 0.0
2014-Oct-30 08:33N 47°34' W 122°21'0 0.0
2014-Oct-30 08:32N 47°34' W 122°21'0 0.0
2014-Oct-30 07:33N 47°34' W 122°21'0 0.0
2014-Oct-30 07:32N 47°34' W 122°21'0 0.0
2014-Oct-30 06:34N 47°34' W 122°21'0 0.3
2014-Oct-30 06:32N 47°34' W 122°21'0 0.0
2014-Oct-30 06:12N 47°34' W 122°21'0 0.0
2014-Oct-30 05:33N 47°34' W 122°21'0 0.0
2014-Oct-30 04:33N 47°34' W 122°21'0 0.0
2014-Oct-30 04:32N 47°34' W 122°21'0 0.0
2014-Oct-30 03:33N 47°34' W 122°21'0 0.0
2014-Oct-30 03:32N 47°34' W 122°21'0 0.0
2014-Oct-30 02:33N 47°34' W 122°21'0 0.0
2014-Oct-30 02:32N 47°34' W 122°21'0 0.0
2014-Oct-30 01:33N 47°34' W 122°21'0 0.0
2014-Oct-30 01:32N 47°34' W 122°21'0 0.0
2014-Oct-30 00:34N 47°34' W 122°21'0 0.0
2014-Oct-30 00:32N 47°34' W 122°21'0 0.0
2014-Oct-29 23:34N 47°34' W 122°21'0 0.0
2014-Oct-29 23:32N 47°34' W 122°21'0 0.0
2014-Oct-29 22:33N 47°34' W 122°21'0 0.0
2014-Oct-29 22:31N 47°34' W 122°21'0 0.0
2014-Oct-29 21:34N 47°34' W 122°21'0 0.0
2014-Oct-29 21:31N 47°34' W 122°21'0 0.0
2014-Oct-29 20:33N 47°34' W 122°21'0 0.0
2014-Oct-29 20:31N 47°34' W 122°21'0 0.0
2014-Oct-29 19:33N 47°34' W 122°21'0 0.0
2014-Oct-29 19:11N 47°34' W 122°21'0 0.0
2014-Oct-29 18:33N 47°34' W 122°21'0 0.0
2014-Oct-29 18:30N 47°34' W 122°21'0 0.0
2014-Oct-29 17:33N 47°34' W 122°21'0 0.0
2014-Oct-29 17:30N 47°34' W 122°21'0 0.0
2014-Oct-29 16:34N 47°34' W 122°21'0 0.0
2014-Oct-29 16:30N 47°34' W 122°21'0 0.0
2014-Oct-29 15:33N 47°34' W 122°21'0 0.0
2014-Oct-29 15:30N 47°34' W 122°21'0 0.0
2014-Oct-29 14:32N 47°34' W 122°21'0 0.0
2014-Oct-29 14:30N 47°34' W 122°21'0 0.0
2014-Oct-29 13:34N 47°34' W 122°21'0 0.0
2014-Oct-29 13:30N 47°34' W 122°21'0 0.4
2014-Oct-29 12:30N 47°34' W 122°21'0 2.8
2014-Oct-29 12:28N 47°34' W 122°21'2 2.3
2014-Oct-29 11:33N 47°36' W 122°24'4 3.6
2014-Oct-29 10:33N 47°32' W 122°25'5 5.2
2014-Oct-29 09:33N 47°27' W 122°23'5 5.1
2014-Oct-29 08:33N 47°22' W 122°21'6 5.8
2014-Oct-29 07:33N 47°19' W 122°28'6 5.7
2014-Oct-29 06:33N 47°15' W 122°34'10 0.4
2014-Oct-28 01:33N 47°10' W 122°48'8 7.9
2014-Oct-28 00:34N 47°12' W 122°36'10 9.6
2014-Oct-27 23:34N 47°22' W 122°32'7 8.2
2014-Oct-27 22:42N 47°28' W 122°30'1 8.1
2014-Oct-27 22:34N 47°30' W 122°30'0 7.0
2014-Oct-27 22:30N 47°30' W 122°30'8 8.0
2014-Oct-27 21:33N 47°36' W 122°23'0 6.9
2014-Oct-27 21:31N 47°36' W 122°23'3 3.0
2014-Oct-27 20:34N 47°33' W 122°21'0 0.0
2014-Oct-27 20:31N 47°33' W 122°21'0 0.0
2014-Oct-27 19:34N 47°33' W 122°21'0 0.0
2014-Oct-27 19:31N 47°33' W 122°21'0 0.0
2014-Oct-27 18:34N 47°33' W 122°21'0 0.0
2014-Oct-27 18:30N 47°33' W 122°21'0 0.0
2014-Oct-27 17:34N 47°33' W 122°21'0 0.0
2014-Oct-27 17:31N 47°33' W 122°21'0 0.0
2014-Oct-27 16:34N 47°33' W 122°21'0 0.0
2014-Oct-27 16:31N 47°33' W 122°21'0 0.0
2014-Oct-27 15:34N 47°33' W 122°21'0 0.0
2014-Oct-27 15:30N 47°33' W 122°21'0 0.0
2014-Oct-27 14:34N 47°33' W 122°21'0 0.0
2014-Oct-27 14:30N 47°33' W 122°21'0 0.0
2014-Oct-27 13:33N 47°33' W 122°21'0 0.0
2014-Oct-27 13:30N 47°33' W 122°21'0 0.0
2014-Oct-27 12:34N 47°33' W 122°21'0 0.0
2014-Oct-27 12:30N 47°33' W 122°21'0 0.0
2014-Oct-27 11:34N 47°33' W 122°21'0 0.0
2014-Oct-27 11:30N 47°33' W 122°21'0 0.0
2014-Oct-27 10:34N 47°33' W 122°21'0 0.0
2014-Oct-27 10:29N 47°33' W 122°21'1 1.5
2014-Oct-27 09:34N 47°35' W 122°22'0 3.0
2014-Oct-27 09:30N 47°35' W 122°22'4 3.9
2014-Oct-27 08:33N 47°34' W 122°27'0 5.3
2014-Oct-27 08:30N 47°34' W 122°27'5 5.8
2014-Oct-27 07:33N 47°29' W 122°30'0 6.0
2014-Oct-27 07:29N 47°28' W 122°31'6 6.4
2014-Oct-27 06:34N 47°22' W 122°32'9 8.6
2014-Oct-27 05:33N 47°14' W 122°35'  
2014-Oct-23 13:27N 47°12' W 122°56'2 1.7
2014-Oct-23 12:25N 47°11' W 122°53'0 0.0
2014-Oct-23 09:14N 47°11' W 122°53'12 3.1
2014-Oct-23 05:31N 47°13' W 122°37'5 5.8
2014-Oct-23 04:33N 47°17' W 122°33'6 5.7
2014-Oct-23 03:33N 47°23' W 122°32'7 7.1
2014-Oct-23 02:33N 47°30' W 122°29'2 7.2
2014-Oct-23 02:14N 47°32' W 122°28'5 7.4
2014-Oct-23 01:33N 47°37' W 122°28'0 7.1
2014-Oct-23 01:29N 47°38' W 122°28'7 7.5
2014-Oct-23 00:33N 47°45' W 122°27'0 7.3
2014-Oct-23 00:29N 47°45' W 122°27'7 7.7
2014-Oct-22 23:34N 47°52' W 122°23'8 8.1
2014-Oct-22 22:33N 47°58' W 122°16'4 4.3
2014-Oct-22 21:33N 48°01' W 122°11'0 0.0
2014-Oct-22 20:33N 48°01' W 122°11'0 0.0
2014-Oct-22 19:33N 48°01' W 122°11'0 0.0
2014-Oct-22 18:26N 48°01' W 122°11'0 0.0
2014-Oct-22 17:33N 48°01' W 122°11'0 0.0
2014-Oct-22 16:33N 48°01' W 122°11'0 0.0
2014-Oct-22 15:33N 48°01' W 122°11'0 0.0
2014-Oct-22 14:10N 48°01' W 122°11'0 0.0
2014-Oct-22 13:31N 48°01' W 122°11'0 0.0
2014-Oct-22 12:33N 48°01' W 122°11'1 1.0
2014-Oct-22 11:33N 48°01' W 122°13'4 4.4
2014-Oct-22 10:37N 47°58' W 122°17'0 2.9
2014-Oct-22 10:33N 47°58' W 122°17'1 3.3
2014-Oct-22 10:22N 47°59' W 122°18'2 2.5
2014-Oct-22 09:33N 47°57' W 122°20'5 5.0
2014-Oct-22 08:33N 47°52' W 122°22'3 4.4
2014-Oct-22 07:52N 47°50' W 122°24'1 4.4
2014-Oct-22 07:33N 47°48' W 122°25'0 4.6
2014-Oct-22 07:32N 47°48' W 122°25'5 4.9
2014-Oct-22 06:33N 47°44' W 122°26'0 5.0
2014-Oct-22 06:32N 47°43' W 122°26'3 4.9
2014-Oct-22 05:57N 47°41' W 122°27'2 5.1
2014-Oct-22 05:33N 47°39' W 122°27'7 6.8
2014-Oct-22 04:33N 47°32' W 122°28'1 8.4
2014-Oct-22 04:26N 47°31' W 122°29'7 8.0
2014-Oct-22 03:33N 47°24' W 122°32'9 9.1
2014-Oct-22 02:33N 47°15' W 122°34'10 7.4
2014-Oct-22 01:10N 47°10' W 122°46'7 0.3
2014-Oct-21 03:30N 47°12' W 122°37'6 6.2
2014-Oct-21 02:33N 47°17' W 122°33'7 7.0
2014-Oct-21 01:34N 47°24' W 122°33'6 7.7
2014-Oct-21 00:44N 47°30' W 122°30'1 7.8
2014-Oct-21 00:34N 47°32' W 122°29'1 7.6
2014-Oct-21 00:29N 47°32' W 122°28'5 5.6
2014-Oct-20 23:32N 47°34' W 122°21'0 7.0
2014-Oct-20 23:29N 47°34' W 122°21'0 0.1
2014-Oct-20 22:31N 47°34' W 122°21'0 0.0
2014-Oct-20 21:10N 47°34' W 122°21'0 0.0
2014-Oct-20 20:31N 47°34' W 122°21'0 0.0
2014-Oct-20 19:49N 47°34' W 122°21'0 0.0
2014-Oct-20 19:33N 47°34' W 122°21'0 0.0
2014-Oct-20 19:29N 47°34' W 122°21'0 0.0
2014-Oct-20 18:34N 47°34' W 122°21'0 0.0
2014-Oct-20 18:29N 47°34' W 122°21'0 0.0
2014-Oct-20 17:33N 47°34' W 122°21'1 0.7
2014-Oct-20 16:33N 47°35' W 122°22'  

Dump ship's entire track history